createdAt,value
2023-03-15T00:01:40.010Z,96350.22
2023-03-15T00:04:06.567Z,96346.47
2023-03-15T00:06:36.157Z,96358.25
2023-03-15T00:09:03.101Z,96345.44
2023-03-15T00:11:30.956Z,96353.22
2023-03-15T00:13:58.093Z,96352.69
2023-03-15T00:16:27.158Z,96351.06
2023-03-15T00:18:54.672Z,96356.44
2023-03-15T00:21:21.344Z,96354.38
2023-03-15T00:23:47.984Z,96356.81
2023-03-15T00:26:14.749Z,96360.88
2023-03-15T00:28:41.443Z,96361.09
2023-03-15T00:31:21.489Z,96367.16
2023-03-15T00:33:54.806Z,96359.91
2023-03-15T00:36:23.670Z,96359.34
2023-03-15T00:38:52.149Z,96367.31
2023-03-15T00:41:19.490Z,96359.75
2023-03-15T00:43:46.074Z,96361.09
2023-03-15T00:46:15.605Z,96367.69
2023-03-15T00:48:42.980Z,96373.41
2023-03-15T00:51:09.465Z,96372.16
2023-03-15T00:53:37.943Z,96372.97
2023-03-15T00:56:09.046Z,96379.22
2023-03-15T00:58:35.824Z,96377.97
2023-03-15T01:01:13.307Z,96381.91
2023-03-15T01:03:40.833Z,96384.06
2023-03-15T01:06:11.713Z,96386.00
2023-03-15T01:08:38.264Z,96389.31
2023-03-15T01:11:06.100Z,96396.75
2023-03-15T01:13:32.766Z,96400.44
2023-03-15T01:15:59.694Z,96404.13
2023-03-15T01:18:26.619Z,96412.66
2023-03-15T01:20:53.175Z,96412.47
2023-03-15T01:23:19.778Z,96409.47
2023-03-15T01:25:47.218Z,96413.22
2023-03-15T01:28:13.760Z,96416.91
2023-03-15T01:30:41.041Z,96423.31
2023-03-15T01:33:07.583Z,96415.56
2023-03-15T01:35:34.056Z,96421.94
2023-03-15T01:38:00.820Z,96419.22
2023-03-15T01:40:28.102Z,96417.88
2023-03-15T01:43:14.998Z,96421.25
2023-03-15T01:45:53.812Z,96413.16
2023-03-15T01:48:23.852Z,96415.47
2023-03-15T01:50:50.702Z,96420.28
2023-03-15T01:53:17.253Z,96418.69
2023-03-15T01:55:43.918Z,96414.19
2023-03-15T01:58:14.480Z,96405.66
2023-03-15T02:00:43.450Z,96402.13
2023-03-15T02:03:18.709Z,96411.19
2023-03-15T02:05:49.432Z,96421.44
2023-03-15T02:08:26.751Z,96413.50
2023-03-15T02:10:54.857Z,96411.91
2023-03-15T02:13:24.725Z,96408.22
2023-03-15T02:15:53.570Z,96406.88
2023-03-15T02:18:26.152Z,96413.31
2023-03-15T02:21:14.771Z,96410.81
2023-03-15T02:23:41.617Z,96413.78
2023-03-15T02:26:23.375Z,96409.13
2023-03-15T02:28:50.831Z,96412.34
2023-03-15T02:31:19.921Z,96406.47
2023-03-15T02:33:48.984Z,96421.44
2023-03-15T02:36:21.456Z,96417.72
2023-03-15T02:38:48.553Z,96422.13
2023-03-15T02:41:17.315Z,96422.16
2023-03-15T02:43:43.998Z,96423.81
2023-03-15T02:46:10.738Z,96415.44
2023-03-15T02:48:37.863Z,96425.69
2023-03-15T02:51:04.598Z,96430.44
2023-03-15T02:53:31.582Z,96429.94
2023-03-15T02:55:58.470Z,96432.47
2023-03-15T02:58:24.997Z,96436.38
2023-03-15T03:00:52.713Z,96436.41
2023-03-15T03:03:19.733Z,96448.84
2023-03-15T03:05:46.247Z,96442.78
2023-03-15T03:08:16.619Z,96447.16
2023-03-15T03:10:43.768Z,96452.19
2023-03-15T03:13:10.278Z,96453.72
2023-03-15T03:15:39.006Z,96458.47
2023-03-15T03:18:05.532Z,96452.75
2023-03-15T03:20:32.107Z,96453.22
2023-03-15T03:22:58.631Z,96458.28
2023-03-15T03:25:27.329Z,96474.06
2023-03-15T03:27:57.048Z,96472.69
2023-03-15T03:30:24.972Z,96477.44
2023-03-15T03:32:52.069Z,96476.91
2023-03-15T03:35:20.393Z,96484.13
2023-03-15T03:37:46.889Z,96478.09
2023-03-15T03:40:17.911Z,96491.38
2023-03-15T03:42:44.951Z,96495.53
2023-03-15T03:45:11.777Z,96494.56
2023-03-15T03:47:42.588Z,96495.53
2023-03-15T03:50:10.352Z,96501.94
2023-03-15T03:52:36.846Z,96505.09
2023-03-15T03:55:07.260Z,96519.38
2023-03-15T03:57:33.915Z,96511.34
2023-03-15T04:00:00.835Z,96511.66
2023-03-15T04:02:30.588Z,96507.28
2023-03-15T04:05:01.193Z,96520.03
2023-03-15T04:07:27.868Z,96524.59
2023-03-15T04:09:55.128Z,96510.31
2023-03-15T04:12:21.800Z,96509.66
2023-03-15T04:14:48.521Z,96521.38
2023-03-15T04:17:16.593Z,96520.88
2023-03-15T04:19:46.782Z,96518.28
2023-03-15T04:22:16.269Z,96521.16
2023-03-15T04:24:57.889Z,96525.91
2023-03-15T04:27:36.294Z,96522.38
2023-03-15T04:30:15.579Z,96534.78
2023-03-15T04:32:48.582Z,96532.28
2023-03-15T04:35:35.470Z,96526.06
2023-03-15T04:38:40.560Z,96535.44
2023-03-15T04:41:28.138Z,96527.38
2023-03-15T04:44:05.377Z,96546.81
2023-03-15T04:47:10.339Z,96541.09
2023-03-15T04:49:55.353Z,96541.75
2023-03-15T04:52:35.352Z,96544.84
2023-03-15T04:55:24.165Z,96543.94
2023-03-15T04:58:09.238Z,96543.75
2023-03-15T05:00:54.422Z,96548.19
2023-03-15T05:03:39.687Z,96551.16
2023-03-15T05:06:26.017Z,96541.25
2023-03-15T05:09:17.940Z,96559.66
2023-03-15T05:12:19.612Z,96561.50
2023-03-15T05:15:13.722Z,96559.16
2023-03-15T05:17:58.570Z,96566.84
2023-03-15T05:20:43.424Z,96569.91
2023-03-15T05:23:18.743Z,96573.63
2023-03-15T05:26:17.104Z,96578.72
2023-03-15T05:28:54.180Z,96588.44
2023-03-15T05:31:37.200Z,96585.06
2023-03-15T05:34:13.273Z,96582.75
2023-03-15T05:36:58.732Z,96587.97
2023-03-15T05:42:40.356Z,96591.19
2023-03-15T05:45:25.459Z,96598.56
2023-03-15T05:47:54.639Z,96610.63
2023-03-15T05:50:41.335Z,96617.69
2023-03-15T05:53:25.960Z,96628.75
2023-03-15T05:56:11.332Z,96629.78
2023-03-15T05:58:56.464Z,96630.13
2023-03-15T06:01:43.160Z,96639.50
2023-03-15T06:04:20.060Z,96644.38
2023-03-15T06:06:46.819Z,96637.84
2023-03-15T06:09:13.971Z,96650.94
2023-03-15T06:11:40.825Z,96657.66
2023-03-15T06:14:11.211Z,96672.06
2023-03-15T06:16:45.606Z,96675.75
2023-03-15T06:19:12.149Z,96681.97
2023-03-15T06:21:39.007Z,96680.09
2023-03-15T06:24:11.316Z,96689.53
2023-03-15T06:26:38.056Z,96687.34
2023-03-15T06:29:05.674Z,96695.56
2023-03-15T06:31:32.697Z,96698.59
2023-03-15T06:34:04.610Z,96703.66
2023-03-15T06:36:31.788Z,96705.97
2023-03-15T06:38:58.292Z,96713.19
2023-03-15T06:41:24.804Z,96714.69
2023-03-15T06:43:56.623Z,96723.44
2023-03-15T06:46:23.235Z,96725.13
2023-03-15T06:48:49.824Z,96729.50
2023-03-15T06:51:18.704Z,96735.88
2023-03-15T06:53:45.508Z,96735.50
2023-03-15T06:56:12.099Z,96737.50
2023-03-15T06:58:38.552Z,96748.59
2023-03-15T07:01:05.066Z,96744.25
2023-03-15T07:03:31.552Z,96750.28
2023-03-15T07:05:57.992Z,96755.66
2023-03-15T07:08:25.000Z,96762.41
2023-03-15T07:10:51.966Z,96759.88
2023-03-15T07:13:19.036Z,96765.75
2023-03-15T07:15:45.784Z,96766.72
2023-03-15T07:18:12.243Z,96773.44
2023-03-15T07:20:38.717Z,96783.56
2023-03-15T07:23:05.241Z,96778.47
2023-03-15T07:25:32.001Z,96789.91
2023-03-15T07:27:58.888Z,96795.97
2023-03-15T07:30:25.357Z,96799.69
2023-03-15T07:32:52.089Z,96804.41
2023-03-15T07:35:18.637Z,96812.50
2023-03-15T07:37:46.016Z,96822.25
2023-03-15T07:40:12.923Z,96822.94
2023-03-15T07:42:40.164Z,96823.94
2023-03-15T07:45:08.348Z,96830.16
2023-03-15T07:47:35.216Z,96825.63
2023-03-15T07:50:01.913Z,96827.63
2023-03-15T07:52:28.342Z,96827.75
2023-03-15T07:54:54.814Z,96834.19
2023-03-15T07:57:21.356Z,96833.66
2023-03-15T07:59:47.800Z,96842.03
2023-03-15T08:02:14.886Z,96837.81
2023-03-15T08:04:41.423Z,96844.47
2023-03-15T08:07:07.979Z,96847.00
2023-03-15T08:09:34.802Z,96853.41
2023-03-15T08:12:01.727Z,96849.91
2023-03-15T08:14:29.072Z,96857.06
2023-03-15T08:16:55.512Z,96851.16
2023-03-15T08:19:22.215Z,96859.00
2023-03-15T08:21:48.755Z,96861.25
2023-03-15T08:24:15.580Z,96859.06
2023-03-15T08:26:45.186Z,96866.56
2023-03-15T08:29:11.667Z,96866.38
2023-03-15T08:31:38.347Z,96854.44
2023-03-15T08:34:04.949Z,96859.25
2023-03-15T08:36:32.710Z,96866.22
2023-03-15T08:38:59.280Z,96866.03
2023-03-15T08:41:25.796Z,96872.19
2023-03-15T08:43:52.322Z,96875.25
2023-03-15T08:46:21.916Z,96874.13
2023-03-15T08:48:49.105Z,96871.66
2023-03-15T08:51:15.556Z,96877.94
2023-03-15T08:53:42.355Z,96880.09
2023-03-15T08:56:09.340Z,96883.75
2023-03-15T08:58:35.904Z,96884.59
2023-03-15T09:01:02.387Z,96891.47
2023-03-15T09:03:28.953Z,96883.09
2023-03-15T09:05:56.413Z,96881.66
2023-03-15T09:08:25.249Z,96884.34
2023-03-15T09:10:56.136Z,96899.69
2023-03-15T09:13:23.108Z,96894.84
2023-03-15T09:15:53.319Z,96901.38
2023-03-15T09:18:20.827Z,96910.88
2023-03-15T09:20:47.738Z,96911.81
2023-03-15T09:23:14.476Z,96916.94
2023-03-15T09:25:40.983Z,96926.06
2023-03-15T09:28:09.014Z,96925.97
2023-03-15T09:30:36.258Z,96925.66
2023-03-15T09:33:02.919Z,96931.47
2023-03-15T09:35:29.519Z,96922.00
2023-03-15T09:37:56.116Z,96930.66
2023-03-15T09:40:29.780Z,96946.00
2023-03-15T09:43:02.188Z,96944.50
2023-03-15T09:45:58.308Z,96943.56
2023-03-15T09:48:29.323Z,96943.28
2023-03-15T09:51:03.175Z,96950.09
2023-03-15T09:53:35.739Z,96928.72
2023-03-15T09:56:02.720Z,96951.78
2023-03-15T09:58:35.431Z,96954.63
2023-03-15T10:01:06.466Z,96958.59
2023-03-15T10:03:59.370Z,96959.94
2023-03-15T10:06:30.171Z,96963.25
2023-03-15T10:08:57.694Z,96962.44
2023-03-15T10:11:34.199Z,96976.56
2023-03-15T10:14:09.134Z,96977.94
2023-03-15T10:16:43.022Z,96985.69
2023-03-15T10:19:22.531Z,96991.03
2023-03-15T10:21:53.209Z,97004.94
2023-03-15T10:24:21.745Z,97016.72
2023-03-15T10:26:50.359Z,97030.69
2023-03-15T10:29:19.776Z,97034.25
2023-03-15T10:31:47.247Z,97041.28
2023-03-15T10:34:14.701Z,97037.56
2023-03-15T10:36:55.102Z,97034.84
2023-03-15T10:39:22.319Z,97039.59
2023-03-15T10:41:50.206Z,97040.47
2023-03-15T10:44:16.637Z,97044.34
2023-03-15T10:46:58.809Z,97041.09
2023-03-15T10:49:32.517Z,97048.88
2023-03-15T10:51:58.980Z,97047.81
2023-03-15T10:54:25.875Z,97053.13
2023-03-15T10:57:04.371Z,97048.00
2023-03-15T10:59:32.438Z,97046.22
2023-03-15T11:02:22.474Z,97036.75
2023-03-15T11:04:51.288Z,97040.34
2023-03-15T11:07:18.438Z,97051.28
2023-03-15T11:09:51.120Z,97065.31
2023-03-15T11:12:24.817Z,97053.28
2023-03-15T11:14:53.135Z,97046.91
2023-03-15T11:17:21.876Z,97058.84
2023-03-15T11:20:13.131Z,97066.03
2023-03-15T11:22:39.988Z,97052.09
2023-03-15T11:25:12.745Z,97058.72
2023-03-15T11:27:40.135Z,97071.31
2023-03-15T11:30:06.869Z,97069.38
2023-03-15T11:32:33.586Z,97077.22
2023-03-15T11:35:03.517Z,97069.84
2023-03-15T11:37:30.076Z,97089.47
2023-03-15T11:40:08.892Z,97093.03
2023-03-15T11:42:45.733Z,97089.94
2023-03-15T11:45:18.325Z,97092.94
2023-03-15T11:47:51.947Z,97097.41
2023-03-15T11:50:18.706Z,97093.78
2023-03-15T11:52:48.147Z,97097.56
2023-03-15T11:55:24.383Z,97089.72
2023-03-15T11:57:51.159Z,97090.75
2023-03-15T12:00:47.386Z,97101.84
2023-03-15T12:03:34.522Z,97105.56
2023-03-15T12:06:07.245Z,97087.25
2023-03-15T12:08:36.645Z,97099.59
2023-03-15T12:11:10.406Z,97097.06
2023-03-15T12:13:36.858Z,97092.50
2023-03-15T12:16:05.967Z,97096.88
2023-03-15T12:18:33.885Z,97090.97
2023-03-15T12:21:06.599Z,97085.63
2023-03-15T12:23:51.723Z,97100.75
2023-03-15T12:26:47.312Z,97097.19
2023-03-15T12:29:16.526Z,97101.94
2023-03-15T12:31:44.109Z,97098.78
2023-03-15T12:34:15.280Z,97108.22
2023-03-15T12:36:45.712Z,97102.25
2023-03-15T12:39:15.309Z,97100.06
2023-03-15T12:41:46.666Z,97094.56
2023-03-15T12:44:19.230Z,97110.34
2023-03-15T12:46:45.754Z,97102.91
2023-03-15T12:49:24.112Z,97112.53
2023-03-15T12:51:55.183Z,97109.31
2023-03-15T12:54:23.675Z,97122.25
2023-03-15T12:56:54.408Z,97121.94
2023-03-15T12:59:41.275Z,97120.81
2023-03-15T13:02:20.334Z,97115.38
2023-03-15T13:04:49.826Z,97124.75
2023-03-15T13:07:51.548Z,97134.47
2023-03-15T13:10:31.321Z,97136.19
2023-03-15T13:13:08.025Z,97133.72
2023-03-15T13:15:40.497Z,97127.50
2023-03-15T13:18:17.783Z,97135.09
2023-03-15T13:20:55.624Z,97132.25
2023-03-15T13:23:26.483Z,97136.28
2023-03-15T13:26:09.579Z,97138.44
2023-03-15T13:28:37.772Z,97137.44
2023-03-15T13:31:11.209Z,97132.69
2023-03-15T13:33:38.221Z,97143.69
2023-03-15T13:36:10.609Z,97144.31
2023-03-15T13:38:37.037Z,97144.97
2023-03-15T13:41:04.582Z,97140.25
2023-03-15T13:43:40.142Z,97142.75
2023-03-15T13:46:06.631Z,97140.44
2023-03-15T13:48:34.782Z,97128.47
2023-03-15T13:51:05.950Z,97144.94
2023-03-15T13:53:48.584Z,97143.69
2023-03-15T13:56:17.733Z,97145.16
2023-03-15T13:58:45.039Z,97152.56
2023-03-15T14:01:12.729Z,97162.88
2023-03-15T14:03:43.302Z,97162.94
2023-03-15T14:06:21.183Z,97169.81
2023-03-15T14:08:49.591Z,97178.00
2023-03-15T14:11:31.019Z,97173.38
2023-03-15T14:13:59.427Z,97164.47
2023-03-15T14:17:01.283Z,97158.47
2023-03-15T14:19:31.359Z,97160.88
2023-03-15T14:21:59.786Z,97152.22
2023-03-15T14:24:29.057Z,97161.00
2023-03-15T14:27:00.483Z,97174.84
2023-03-15T14:29:31.412Z,97167.50
2023-03-15T14:32:02.694Z,97178.31
2023-03-15T14:34:33.907Z,97179.47
2023-03-15T14:37:04.272Z,97184.09
2023-03-15T14:39:38.084Z,97187.72
2023-03-15T14:42:04.725Z,97199.06
2023-03-15T14:44:31.165Z,97212.06
2023-03-15T14:46:57.869Z,97211.38
2023-03-15T14:49:28.675Z,97208.38
2023-03-15T14:52:05.154Z,97220.28
2023-03-15T14:54:33.603Z,97213.97
2023-03-15T14:57:00.077Z,97221.78
2023-03-15T14:59:27.006Z,97217.13
2023-03-15T15:01:55.549Z,97216.78
2023-03-15T15:04:22.721Z,97213.91
2023-03-15T15:06:53.012Z,97214.78
2023-03-15T15:09:23.704Z,97224.22
2023-03-15T15:11:50.918Z,97222.66
2023-03-15T15:14:17.456Z,97221.56
2023-03-15T15:16:44.654Z,97233.13
2023-03-15T15:19:11.367Z,97218.13
2023-03-15T15:21:38.542Z,97229.53
2023-03-15T15:24:06.976Z,97234.75
2023-03-15T15:26:34.403Z,97235.94
2023-03-15T15:29:00.962Z,97244.06
2023-03-15T15:31:28.981Z,97240.41
2023-03-15T15:33:56.543Z,97253.03
2023-03-15T15:36:29.909Z,97264.38
2023-03-15T15:38:57.891Z,97255.88
2023-03-15T15:41:25.730Z,97271.06
2023-03-15T15:43:52.499Z,97265.94
2023-03-15T15:46:19.100Z,97269.00
2023-03-15T15:48:45.648Z,97281.91
2023-03-15T15:51:20.591Z,97289.09
2023-03-15T15:53:47.345Z,97288.03
2023-03-15T15:56:14.100Z,97282.66
2023-03-15T15:58:41.613Z,97291.22
2023-03-15T16:01:11.279Z,97294.94
2023-03-15T16:03:37.798Z,97305.81
2023-03-15T16:06:04.353Z,97306.47
2023-03-15T16:08:34.488Z,97307.16
2023-03-15T16:11:08.322Z,97312.72
2023-03-15T16:13:34.887Z,97311.78
2023-03-15T16:16:01.446Z,97321.97
2023-03-15T16:18:27.950Z,97313.63
2023-03-15T16:20:54.593Z,97311.06
2023-03-15T16:23:23.518Z,97313.69
2023-03-15T16:25:52.211Z,97328.06
2023-03-15T16:28:18.726Z,97327.56
2023-03-15T16:30:46.978Z,97329.09
2023-03-15T16:33:18.442Z,97320.31
2023-03-15T16:35:45.488Z,97343.94
2023-03-15T16:38:14.764Z,97341.31
2023-03-15T16:40:43.172Z,97352.13
2023-03-15T16:43:11.341Z,97354.72
2023-03-15T16:45:37.792Z,97353.84
2023-03-15T16:48:04.422Z,97363.50
2023-03-15T16:50:31.612Z,97376.78
2023-03-15T16:52:59.592Z,97372.84
2023-03-15T16:55:27.912Z,97374.81
2023-03-15T16:57:54.737Z,97387.50
2023-03-15T17:00:21.760Z,97387.19
2023-03-15T17:02:49.315Z,97388.75
2023-03-15T17:05:18.993Z,97390.00
2023-03-15T17:07:49.818Z,97388.00
2023-03-15T17:10:21.751Z,97405.53
2023-03-15T17:12:48.693Z,97405.19
2023-03-15T17:15:17.155Z,97407.44
2023-03-15T17:17:43.595Z,97406.28
2023-03-15T17:20:12.268Z,97410.06
2023-03-15T17:22:41.597Z,97411.47
2023-03-15T17:25:08.483Z,97415.63
2023-03-15T17:27:36.915Z,97427.72
2023-03-15T17:30:14.240Z,97426.56
2023-03-15T17:32:41.483Z,97430.13
2023-03-15T17:35:08.442Z,97431.72
2023-03-15T17:37:35.842Z,97441.31
2023-03-15T17:40:10.082Z,97436.63
2023-03-15T17:42:36.544Z,97440.03
2023-03-15T17:45:04.782Z,97450.66
2023-03-15T17:47:32.402Z,97450.13
2023-03-15T17:49:58.897Z,97454.06
2023-03-15T17:52:27.713Z,97458.97
2023-03-15T17:54:54.157Z,97464.09
2023-03-15T17:57:20.657Z,97465.00
2023-03-15T17:59:47.114Z,97460.31
2023-03-15T18:02:16.459Z,97464.84
2023-03-15T18:04:42.888Z,97462.56
2023-03-15T18:07:09.359Z,97471.81
2023-03-15T18:09:35.810Z,97475.59
2023-03-15T18:12:02.293Z,97475.25
2023-03-15T18:14:30.901Z,97471.91
2023-03-15T18:16:57.493Z,97480.75
2023-03-15T18:19:24.099Z,97483.56
2023-03-15T18:21:50.521Z,97482.09
2023-03-15T18:24:17.021Z,97481.59
2023-03-15T18:26:43.439Z,97479.50
2023-03-15T18:29:10.049Z,97476.91
2023-03-15T18:31:36.654Z,97490.66
2023-03-15T18:34:03.585Z,97488.09
2023-03-15T18:36:30.141Z,97492.19
2023-03-15T18:38:56.582Z,97495.63
2023-03-15T18:41:24.827Z,97494.75
2023-03-15T18:43:51.990Z,97497.13
2023-03-15T18:46:25.760Z,97489.03
2023-03-15T18:48:56.021Z,97497.50
2023-03-15T18:51:25.687Z,97497.81
2023-03-15T18:53:52.354Z,97501.53
2023-03-15T18:56:20.054Z,97510.03
2023-03-15T18:58:47.367Z,97502.00
2023-03-15T19:01:14.411Z,97501.16
2023-03-15T19:03:40.948Z,97504.38
2023-03-15T19:06:08.773Z,97507.84
2023-03-15T19:08:35.500Z,97513.03
2023-03-15T19:11:03.609Z,97508.34
2023-03-15T19:13:30.284Z,97516.84
2023-03-15T19:15:56.938Z,97516.19
2023-03-15T19:18:23.783Z,97513.97
2023-03-15T19:20:51.096Z,97523.13
2023-03-15T19:23:17.605Z,97516.47
2023-03-15T19:25:44.729Z,97524.16
2023-03-15T19:28:11.268Z,97531.44
2023-03-15T19:30:37.975Z,97533.16
2023-03-15T19:33:04.542Z,97535.09
2023-03-15T19:35:33.153Z,97543.75
2023-03-15T19:38:00.242Z,97530.50
2023-03-15T19:40:26.702Z,97532.50
2023-03-15T19:42:53.678Z,97536.88
2023-03-15T19:45:20.179Z,97533.16
2023-03-15T19:47:47.115Z,97535.09
2023-03-15T19:50:14.302Z,97525.84
2023-03-15T19:52:46.058Z,97526.91
2023-03-15T19:55:16.988Z,97531.47
2023-03-15T19:57:43.953Z,97537.00
2023-03-15T20:00:13.301Z,97535.72
2023-03-15T20:02:41.238Z,97541.22
2023-03-15T20:05:08.824Z,97532.53
2023-03-15T20:07:38.303Z,97537.94
2023-03-15T20:10:06.014Z,97537.63
2023-03-15T20:12:32.634Z,97544.44
2023-03-15T20:14:59.212Z,97543.78
2023-03-15T20:17:27.473Z,97552.94
2023-03-15T20:19:54.401Z,97556.56
2023-03-15T20:22:21.061Z,97554.34
2023-03-15T20:24:47.750Z,97562.50
2023-03-15T20:27:14.255Z,97556.53
2023-03-15T20:29:40.840Z,97556.31
2023-03-15T20:32:07.353Z,97564.41
2023-03-15T20:34:33.816Z,97559.81
2023-03-15T20:37:00.344Z,97561.25
2023-03-15T20:39:26.863Z,97556.56
2023-03-15T20:41:53.474Z,97554.88
2023-03-15T20:44:19.934Z,97576.78
2023-03-15T20:46:46.467Z,97574.66
2023-03-15T20:49:14.204Z,97575.50
2023-03-15T20:51:40.744Z,97582.97
2023-03-15T20:54:07.186Z,97588.38
2023-03-15T20:56:34.296Z,97584.81
2023-03-15T20:59:01.500Z,97591.03
2023-03-15T21:01:28.021Z,97588.56
2023-03-15T21:03:56.372Z,97589.09
2023-03-15T21:06:23.091Z,97591.66
2023-03-15T21:08:50.229Z,97592.31
2023-03-15T21:11:16.714Z,97592.72
2023-03-15T21:13:43.243Z,97596.66
2023-03-15T21:16:12.268Z,97600.41
2023-03-15T21:18:38.827Z,97599.31
2023-03-15T21:21:06.477Z,97609.34
2023-03-15T21:23:33.227Z,97608.28
2023-03-15T21:26:04.149Z,97612.81
2023-03-15T21:28:31.219Z,97627.34
2023-03-15T21:30:57.872Z,97624.16
2023-03-15T21:33:25.318Z,97625.38
2023-03-15T21:35:52.093Z,97633.22
2023-03-15T21:38:19.061Z,97622.28
2023-03-15T21:40:46.279Z,97624.31
2023-03-15T21:43:13.941Z,97623.38
2023-03-15T21:45:41.973Z,97619.53
2023-03-15T21:48:09.001Z,97627.59
2023-03-15T21:50:36.459Z,97624.88
2023-03-15T21:53:03.614Z,97614.44
2023-03-15T21:55:33.443Z,97608.69
2023-03-15T21:58:01.787Z,97612.91
2023-03-15T22:00:29.304Z,97608.34
2023-03-15T22:02:56.028Z,97609.47
2023-03-15T22:05:23.011Z,97607.38
2023-03-15T22:07:49.559Z,97612.41
2023-03-15T22:10:19.780Z,97621.66
2023-03-15T22:12:46.474Z,97614.66
2023-03-15T22:15:13.431Z,97619.38
2023-03-15T22:17:40.215Z,97614.50
2023-03-15T22:20:16.276Z,97617.16
2023-03-15T22:22:43.711Z,97620.50
2023-03-15T22:25:10.872Z,97626.44
2023-03-15T22:27:37.384Z,97627.47
2023-03-15T22:30:04.633Z,97643.34
2023-03-15T22:32:31.283Z,97635.25
2023-03-15T22:34:58.007Z,97642.91
2023-03-15T22:37:24.785Z,97639.13
2023-03-15T22:39:51.304Z,97641.38
2023-03-15T22:42:17.814Z,97637.38
2023-03-15T22:44:44.258Z,97648.22
2023-03-15T22:47:10.716Z,97645.53
2023-03-15T22:49:37.278Z,97658.84
2023-03-15T22:52:03.879Z,97656.28
2023-03-15T22:54:30.400Z,97657.13
2023-03-15T22:56:56.825Z,97658.03
2023-03-15T22:59:28.820Z,97657.94
2023-03-15T23:01:56.566Z,97665.09
2023-03-15T23:04:23.990Z,97667.22
2023-03-15T23:06:50.500Z,97673.78
2023-03-15T23:09:17.174Z,97668.81
2023-03-15T23:11:43.626Z,97674.38
2023-03-15T23:14:10.074Z,97673.94
2023-03-15T23:16:36.537Z,97676.16
2023-03-15T23:19:03.178Z,97685.53
2023-03-15T23:21:29.707Z,97680.53
2023-03-15T23:23:56.178Z,97676.19
2023-03-15T23:26:25.454Z,97683.22
2023-03-15T23:28:52.922Z,97685.63
2023-03-15T23:31:19.457Z,97681.41
2023-03-15T23:33:47.677Z,97681.50
2023-03-15T23:36:14.187Z,97682.97
2023-03-15T23:38:40.854Z,97689.25
2023-03-15T23:41:07.451Z,97695.56
2023-03-15T23:43:33.934Z,97698.09
2023-03-15T23:46:01.403Z,97698.09
2023-03-15T23:48:27.917Z,97694.56
2023-03-15T23:50:58.108Z,97697.47
2023-03-15T23:53:25.590Z,97692.31
2023-03-15T23:55:52.230Z,97696.81
2023-03-15T23:58:19.280Z,97704.91
